メインページ
METAR-TAF:

METAR-TAF

空港 :

ヒヒフォ空港

ウォリス, フランス

緯度: 13-14S, 経度: 176-10W, 海抜: 23m

METAR: 見つかりません

時間: 01:26 (13:26 UTC)

予報

当レポートは2時間26分前の11:00(UTC)に作成
予報は10日の 12時(UTC)から 11日の 12時(UTC)まで有効
南/南東の風 5kt
視程10km以上
高度2000ftの雲は散在している
高度3000ftの千切れ雲あり
10日の 12時(UTC)から 11日の 12時(UTC)まで一時的に
視程: 4000m
高度1400ftの千切れ雲あり
高度2500ftの雲は散在している, 塔状積雲.
にわか雨
確率 30% :
10日の 12時(UTC)から 10日の 20時(UTC)まで一時的に
視程: 2000m
高度1200ftの千切れ雲あり
高度2000ftの雲は散在している, 積乱雲.
激しい雷雨, 雨
確率 40% :
11日の 00時(UTC)から 11日の 12時(UTC)まで一時的に
視程: 2000m
高度1200ftの千切れ雲あり
高度1800ftの雲は散在している, 積乱雲.
激しい雷雨, 雨

TAF: NLWW 101100Z 1012/1112 15005KT 9999 SCT020 BKN030 TEMPO 1012/1112 4000 SHRA BKN014 SCT025TCU PROB30 TEMPO 1012/1020 2000 TSRA BKN012 SCT020CB PROB40 TEMPO 1100/1112 2000 TSRA BKN012 SCT018CB

4,000以上の空港の気象観測と天気予報(METAR報とTAF報)

利用可能な観測所は地図上に黄色い丸と赤い丸で示す。

丸の上にカーソルを重ねると観測所名を参照できる。

次にクリックすると気象観測と天気予報を参照できる。

マップの切り替え:黒色「×」印の緑ボタンをクリックして拡大、「-」印の緑ボタンをクリックして縮小、緑色の三角印をクリックして隣りの地図に切り替え


METAR-TAF: